createdAt,value
2018-08-31T00:00:14.433Z,99629.52
2018-08-31T00:00:45.555Z,99626.40
2018-08-31T00:01:16.794Z,99625.53
2018-08-31T00:01:47.916Z,99631.01
2018-08-31T00:02:19.141Z,99629.67
2018-08-31T00:02:50.330Z,99625.78
2018-08-31T00:03:21.512Z,99626.27
2018-08-31T00:03:52.748Z,99628.56
2018-08-31T00:04:23.930Z,99629.39
2018-08-31T00:04:55.105Z,99628.30
2018-08-31T00:05:26.276Z,99627.69
2018-08-31T00:05:57.444Z,99631.51
2018-08-31T00:06:28.563Z,99625.56
2018-08-31T00:06:59.722Z,99626.19
2018-08-31T00:07:30.832Z,99629.05
2018-08-31T00:08:01.941Z,99630.13
2018-08-31T00:08:33.110Z,99629.38
2018-08-31T00:09:04.307Z,99626.47
2018-08-31T00:09:35.479Z,99630.08
2018-08-31T00:10:06.661Z,99628.96
2018-08-31T00:10:37.905Z,99623.14
2018-08-31T00:11:09.088Z,99629.53
2018-08-31T00:11:40.264Z,99628.07
2018-08-31T00:12:11.487Z,99634.80
2018-08-31T00:12:42.661Z,99628.77
2018-08-31T00:13:13.772Z,99628.02
2018-08-31T00:13:44.950Z,99629.60
2018-08-31T00:14:16.123Z,99628.77
2018-08-31T00:14:47.301Z,99623.92
2018-08-31T00:15:18.419Z,99632.00
2018-08-31T00:15:49.538Z,99626.94
2018-08-31T00:16:20.655Z,99627.52
2018-08-31T00:16:51.824Z,99623.53
2018-08-31T00:17:22.994Z,99626.19
2018-08-31T00:17:54.175Z,99627.52
2018-08-31T00:18:25.295Z,99623.16
2018-08-31T00:18:56.420Z,99625.93
2018-08-31T00:19:27.580Z,99625.67
2018-08-31T00:19:58.695Z,99630.23
2018-08-31T00:20:29.818Z,99628.08
2018-08-31T00:21:00.939Z,99625.80
2018-08-31T00:21:32.163Z,99629.28
2018-08-31T00:22:03.356Z,99630.61
2018-08-31T00:22:34.588Z,99629.78
2018-08-31T00:23:05.812Z,99626.75
2018-08-31T00:23:36.987Z,99627.81
2018-08-31T00:24:08.104Z,99631.69
2018-08-31T00:24:39.212Z,99633.59
2018-08-31T00:25:10.420Z,99626.70
2018-08-31T00:25:41.544Z,99629.96
2018-08-31T00:26:12.657Z,99629.79
2018-08-31T00:26:43.773Z,99627.37
2018-08-31T00:27:14.920Z,99631.94
2018-08-31T00:27:46.140Z,99625.53
2018-08-31T00:28:17.296Z,99629.00
2018-08-31T00:28:48.473Z,99629.69
2018-08-31T00:29:19.667Z,99625.79
2018-08-31T00:29:50.815Z,99627.73
2018-08-31T00:30:21.988Z,99627.47
2018-08-31T00:30:53.152Z,99621.29
2018-08-31T00:31:24.280Z,99621.98
2018-08-31T00:31:55.394Z,99627.98
2018-08-31T00:32:26.513Z,99623.62
2018-08-31T00:32:57.656Z,99624.78
2018-08-31T00:33:28.884Z,99622.93
2018-08-31T00:34:00.026Z,99619.55
2018-08-31T00:34:31.232Z,99621.20
2018-08-31T00:35:02.464Z,99631.92
2018-08-31T00:35:33.584Z,99631.17
2018-08-31T00:36:04.712Z,99627.19
2018-08-31T00:36:35.885Z,99633.83
2018-08-31T00:37:07.112Z,99623.90
2018-08-31T00:37:38.248Z,99629.32
2018-08-31T00:38:09.416Z,99629.52
2018-08-31T00:38:40.593Z,99629.74
2018-08-31T00:39:11.821Z,99633.34
2018-08-31T00:39:42.953Z,99632.97
2018-08-31T00:40:14.176Z,99633.84
2018-08-31T00:40:45.297Z,99633.46
2018-08-31T00:41:16.468Z,99631.64
2018-08-31T00:41:47.639Z,99632.59
2018-08-31T00:42:18.870Z,99633.84
2018-08-31T00:42:50.069Z,99632.25
2018-08-31T00:43:21.242Z,99633.92
2018-08-31T00:43:52.404Z,99632.97
2018-08-31T00:44:23.610Z,99632.59
2018-08-31T00:44:54.731Z,99632.59
2018-08-31T00:45:25.891Z,99629.11
2018-08-31T00:45:57.044Z,99635.97
2018-08-31T00:46:28.181Z,99630.48
2018-08-31T00:46:59.300Z,99633.24
2018-08-31T00:47:30.425Z,99629.11
2018-08-31T00:48:01.540Z,99609.61
2018-08-31T00:48:32.699Z,99634.45
2018-08-31T00:49:03.889Z,99627.56
2018-08-31T00:49:35.013Z,99631.84
2018-08-31T00:50:06.185Z,99634.72
2018-08-31T00:50:37.407Z,99638.52
2018-08-31T00:51:08.568Z,99635.97
2018-08-31T00:51:39.744Z,99627.75
2018-08-31T00:52:10.903Z,99633.28
2018-08-31T00:52:42.073Z,99632.48
2018-08-31T00:53:13.187Z,99638.73
2018-08-31T00:53:44.360Z,99633.66
2018-08-31T00:54:15.540Z,99641.41
2018-08-31T00:54:46.704Z,99631.41
2018-08-31T00:55:17.819Z,99638.42
2018-08-31T00:55:48.996Z,99126.20
2018-08-31T00:56:20.119Z,99635.01
2018-08-31T00:56:51.237Z,99636.72
2018-08-31T00:57:22.463Z,99634.90
2018-08-31T00:57:53.742Z,99630.81
2018-08-31T00:58:24.901Z,99636.98
2018-08-31T00:58:56.094Z,99641.34
2018-08-31T00:59:27.270Z,99639.52
2018-08-31T00:59:58.397Z,99634.79
2018-08-31T01:00:29.620Z,99642.74
2018-08-31T01:01:00.742Z,99636.72
2018-08-31T01:01:31.924Z,99640.69
2018-08-31T01:02:03.113Z,99634.90
2018-08-31T01:02:34.396Z,99637.93
2018-08-31T01:03:05.628Z,99637.44
2018-08-31T01:03:36.823Z,99637.66
2018-08-31T01:04:08.054Z,99632.81
2018-08-31T01:04:39.256Z,99635.95
2018-08-31T01:05:10.426Z,99635.95
2018-08-31T01:05:41.705Z,99632.36
2018-08-31T01:06:12.861Z,99629.33
2018-08-31T01:06:43.977Z,99635.84
2018-08-31T01:07:15.161Z,99628.77
2018-08-31T01:07:46.299Z,99626.49
2018-08-31T01:08:17.511Z,99628.16
2018-08-31T01:08:48.729Z,99628.16
2018-08-31T01:09:19.904Z,99629.41
2018-08-31T01:09:51.007Z,99634.60
2018-08-31T01:10:22.130Z,99629.68
2018-08-31T01:10:53.366Z,99629.68
2018-08-31T01:11:24.576Z,99633.66
2018-08-31T01:11:55.725Z,99625.44
2018-08-31T01:12:26.907Z,99633.84
2018-08-31T01:12:58.095Z,99631.69
2018-08-31T01:13:29.271Z,99631.69
2018-08-31T01:14:00.404Z,99629.14
2018-08-31T01:14:31.581Z,99628.77
2018-08-31T01:15:02.758Z,99630.09
2018-08-31T01:15:33.930Z,99629.70
2018-08-31T01:16:05.043Z,99632.09
2018-08-31T01:16:36.212Z,99634.85
2018-08-31T01:17:08.047Z,99631.33
2018-08-31T01:17:39.217Z,99629.73
2018-08-31T01:18:10.333Z,99630.69
2018-08-31T01:18:41.565Z,99627.66
2018-08-31T01:19:12.747Z,99625.38
2018-08-31T01:19:43.856Z,99622.66
2018-08-31T01:20:14.975Z,99626.91
2018-08-31T01:20:46.143Z,99625.73
2018-08-31T01:21:17.252Z,99627.52
2018-08-31T01:21:48.360Z,99626.49
2018-08-31T01:22:19.516Z,99626.77
2018-08-31T01:22:50.672Z,99626.27
2018-08-31T01:23:21.882Z,99622.67
2018-08-31T01:23:53.031Z,99628.81
2018-08-31T01:24:24.152Z,99625.44
2018-08-31T01:24:55.326Z,99620.59
2018-08-31T01:25:26.549Z,99624.56
2018-08-31T01:25:57.733Z,99626.49
2018-08-31T01:26:28.974Z,99627.22
2018-08-31T01:27:00.150Z,99617.56
2018-08-31T01:27:31.421Z,99626.49
2018-08-31T01:28:02.545Z,99624.19
2018-08-31T01:28:33.714Z,99623.09
2018-08-31T01:29:04.830Z,99627.73
2018-08-31T01:29:36.045Z,99621.14
2018-08-31T01:30:07.261Z,99618.78
2018-08-31T01:30:38.420Z,99625.52
2018-08-31T01:31:09.541Z,99624.20
2018-08-31T01:31:40.720Z,99621.77
2018-08-31T01:32:11.886Z,99624.14
2018-08-31T01:32:43.060Z,99619.63
2018-08-31T01:33:14.220Z,99625.50
2018-08-31T01:33:45.344Z,99625.50
2018-08-31T01:34:16.452Z,99625.12
2018-08-31T01:34:47.680Z,99624.55
2018-08-31T01:35:18.803Z,99624.93
2018-08-31T01:35:49.987Z,99620.47
2018-08-31T01:36:21.204Z,99626.98
2018-08-31T01:36:52.393Z,99623.77
2018-08-31T01:37:23.560Z,99623.20
2018-08-31T01:37:54.683Z,99620.55
2018-08-31T01:38:25.796Z,99631.16
2018-08-31T01:38:56.911Z,99625.09
2018-08-31T01:39:28.078Z,99623.01
2018-08-31T01:39:59.289Z,99625.01
2018-08-31T01:40:30.463Z,99628.52
2018-08-31T01:41:01.583Z,99625.50
2018-08-31T01:41:32.812Z,99628.70
2018-08-31T01:42:03.974Z,99627.22
2018-08-31T01:42:35.205Z,99626.19
2018-08-31T01:43:06.327Z,99624.59
2018-08-31T01:43:37.493Z,99628.41
2018-08-31T01:44:08.675Z,99627.64
2018-08-31T01:44:39.868Z,99634.09
2018-08-31T01:45:11.126Z,99627.66
2018-08-31T01:45:42.247Z,99627.11
2018-08-31T01:46:13.363Z,99629.97
2018-08-31T01:46:44.553Z,99634.72
2018-08-31T01:47:15.844Z,99633.95
2018-08-31T01:47:47.021Z,99634.48
2018-08-31T01:48:18.197Z,99638.66
2018-08-31T01:48:49.365Z,99636.95
2018-08-31T01:49:20.475Z,99634.52
2018-08-31T01:49:51.589Z,99636.51
2018-08-31T01:50:22.764Z,99637.91
2018-08-31T01:50:53.937Z,99635.64
2018-08-31T01:51:25.048Z,99638.28
2018-08-31T01:51:56.301Z,99634.98
2018-08-31T01:52:27.522Z,99635.09
2018-08-31T01:52:58.675Z,99640.59
2018-08-31T01:53:29.799Z,99632.27
2018-08-31T01:54:00.916Z,99630.95
2018-08-31T01:54:32.039Z,99634.92
2018-08-31T01:55:03.209Z,99637.18
2018-08-31T01:55:34.367Z,99630.18
2018-08-31T01:56:05.543Z,99637.56
2018-08-31T01:56:36.672Z,99630.45
2018-08-31T01:57:07.864Z,99636.90
2018-08-31T01:57:38.979Z,99640.20
2018-08-31T01:58:10.157Z,99641.04
2018-08-31T01:58:41.330Z,99641.14
2018-08-31T01:59:12.501Z,99642.47
2018-08-31T01:59:43.624Z,99646.44
2018-08-31T02:00:14.730Z,99639.27
2018-08-31T02:00:45.893Z,99643.41
2018-08-31T02:01:17.026Z,99645.40
2018-08-31T02:01:48.241Z,99646.44
2018-08-31T02:02:19.475Z,99644.73
2018-08-31T02:02:50.761Z,99653.66
2018-08-31T02:03:21.954Z,99645.71
2018-08-31T02:03:53.154Z,99644.39
2018-08-31T02:04:24.280Z,99643.06
2018-08-31T02:04:55.456Z,99643.14
2018-08-31T02:05:26.665Z,99642.68
2018-08-31T02:05:57.794Z,99643.41
2018-08-31T02:06:28.954Z,99639.45
2018-08-31T02:07:00.158Z,99639.45
2018-08-31T02:07:31.335Z,99642.30
2018-08-31T02:08:02.556Z,99638.33
2018-08-31T02:08:33.730Z,99633.53
2018-08-31T02:09:04.951Z,99638.33
2018-08-31T02:09:36.184Z,99638.13
2018-08-31T02:10:07.369Z,99636.24
2018-08-31T02:10:38.620Z,99636.24
2018-08-31T02:11:09.808Z,99631.50
2018-08-31T02:11:40.949Z,99631.71
2018-08-31T02:12:12.076Z,99632.93
2018-08-31T02:12:43.193Z,99633.48
2018-08-31T02:13:14.309Z,99636.51
2018-08-31T02:13:45.415Z,99637.73
2018-08-31T02:14:16.646Z,99634.52
2018-08-31T02:14:47.767Z,99635.84
2018-08-31T02:15:18.888Z,99638.00
2018-08-31T02:15:49.996Z,99633.20
2018-08-31T02:16:21.100Z,99639.89
2018-08-31T02:16:52.207Z,99635.26
2018-08-31T02:17:23.316Z,99636.23
2018-08-31T02:17:54.476Z,99638.12
2018-08-31T02:18:25.749Z,99638.33
2018-08-31T02:18:56.981Z,99638.88
2018-08-31T02:19:28.107Z,99641.15
2018-08-31T02:19:59.288Z,99637.28
2018-08-31T02:20:30.395Z,99639.06
2018-08-31T02:21:01.569Z,99638.23
2018-08-31T02:21:32.742Z,99643.03
2018-08-31T02:22:03.916Z,99638.71
2018-08-31T02:22:35.038Z,99613.78
2018-08-31T02:23:06.257Z,99640.21
2018-08-31T02:23:37.379Z,99642.30
2018-08-31T02:24:08.495Z,99639.16
2018-08-31T02:24:39.723Z,99641.36
2018-08-31T02:25:10.962Z,99644.00
2018-08-31T02:25:42.210Z,99639.06
2018-08-31T02:26:13.332Z,99641.64
2018-08-31T02:26:44.459Z,99645.89
2018-08-31T02:27:15.689Z,99637.84
2018-08-31T02:27:46.808Z,99643.97
2018-08-31T02:28:18.012Z,99646.44
2018-08-31T02:28:49.252Z,99645.50
2018-08-31T02:29:20.431Z,99647.28
2018-08-31T02:29:51.553Z,99644.52
2018-08-31T02:30:22.669Z,99649.09
2018-08-31T02:30:53.799Z,99642.92
2018-08-31T02:31:24.962Z,99651.35
2018-08-31T02:31:56.149Z,99644.73
2018-08-31T02:32:27.273Z,99648.50
2018-08-31T02:32:58.435Z,99644.52
2018-08-31T02:33:29.606Z,99642.85
2018-08-31T02:34:00.731Z,99644.84
2018-08-31T02:34:31.961Z,99645.13
2018-08-31T02:35:03.089Z,99650.14
2018-08-31T02:35:34.220Z,99642.02
2018-08-31T02:36:05.345Z,99641.74
2018-08-31T02:36:36.522Z,99637.95
2018-08-31T02:37:07.696Z,99611.52
2018-08-31T02:37:38.877Z,99637.39
2018-08-31T02:38:10.162Z,99637.59
2018-08-31T02:38:41.356Z,99637.77
2018-08-31T02:39:12.517Z,99637.21
2018-08-31T02:39:43.705Z,99635.50
2018-08-31T02:40:14.889Z,99639.30
2018-08-31T02:40:46.028Z,99641.00
2018-08-31T02:41:17.151Z,99635.71
2018-08-31T02:41:48.316Z,99635.33
2018-08-31T02:42:19.443Z,99636.75
2018-08-31T02:42:50.615Z,99642.04
2018-08-31T02:43:21.746Z,99638.53
2018-08-31T02:43:52.925Z,99633.23
2018-08-31T02:44:24.109Z,99631.53
2018-08-31T02:44:55.348Z,99638.25
2018-08-31T02:45:26.528Z,99638.08
2018-08-31T02:45:57.721Z,99629.09
2018-08-31T02:46:28.831Z,99638.36
2018-08-31T02:47:00.016Z,99635.61
2018-08-31T02:47:31.132Z,99636.27
2018-08-31T02:48:02.253Z,99637.00
2018-08-31T02:48:33.493Z,99632.20
2018-08-31T02:49:04.673Z,99632.69
2018-08-31T02:49:35.804Z,99633.14
2018-08-31T02:50:07.008Z,99635.33
2018-08-31T02:50:38.252Z,99637.21
2018-08-31T02:51:09.444Z,99634.67
2018-08-31T02:51:40.622Z,99633.80
2018-08-31T02:52:11.764Z,99632.09
2018-08-31T02:52:43.006Z,99633.80
2018-08-31T02:53:14.192Z,99627.56
2018-08-31T02:53:45.402Z,99630.77
2018-08-31T02:54:16.524Z,99625.76
2018-08-31T02:54:47.679Z,99629.55
2018-08-31T02:55:18.841Z,99629.06
2018-08-31T02:55:49.960Z,99631.16
2018-08-31T02:56:21.197Z,99628.13
2018-08-31T02:56:52.360Z,99625.58
2018-08-31T02:57:23.479Z,99627.30
2018-08-31T02:57:54.645Z,99630.88
2018-08-31T02:58:25.780Z,99628.23
2018-08-31T02:58:56.900Z,99623.22
2018-08-31T02:59:28.090Z,99621.52
2018-08-31T02:59:59.211Z,99628.71
2018-08-31T03:00:30.437Z,99627.84
2018-08-31T03:01:01.612Z,99625.86
2018-08-31T03:01:32.800Z,99629.65
2018-08-31T03:02:03.978Z,99634.20
2018-08-31T03:02:35.164Z,99633.88
2018-08-31T03:03:06.281Z,99632.77
2018-08-31T03:03:37.461Z,99635.13
2018-08-31T03:04:08.600Z,99639.27
2018-08-31T03:04:39.714Z,99631.53
2018-08-31T03:05:10.938Z,99633.90
2018-08-31T03:05:42.056Z,99635.67
2018-08-31T03:06:13.243Z,99636.26
2018-08-31T03:06:44.371Z,99638.52
2018-08-31T03:07:15.622Z,99637.58
2018-08-31T03:07:46.860Z,99640.67
2018-08-31T03:08:17.982Z,99637.58
2018-08-31T03:08:49.153Z,99638.52
2018-08-31T03:09:20.396Z,99636.78
2018-08-31T03:09:51.589Z,99640.23
2018-08-31T03:10:22.781Z,99641.45
2018-08-31T03:10:53.892Z,99638.80
2018-08-31T03:11:25.128Z,99639.47
2018-08-31T03:11:56.285Z,99640.41
2018-08-31T03:12:27.471Z,99641.73
2018-08-31T03:12:58.640Z,99639.09
2018-08-31T03:13:29.816Z,99643.81
2018-08-31T03:14:01.000Z,99637.95
2018-08-31T03:14:32.232Z,99645.81
2018-08-31T03:15:03.403Z,99639.75
2018-08-31T03:15:34.516Z,99639.09
2018-08-31T03:20:55.117Z,99647.50
2018-08-31T03:21:26.345Z,99643.31
2018-08-31T03:21:57.389Z,99647.00
2018-08-31T03:22:28.561Z,99647.93
2018-08-31T03:22:59.685Z,99646.26
2018-08-31T03:23:30.920Z,99644.45
2018-08-31T03:24:02.188Z,99650.57
2018-08-31T03:24:33.383Z,99655.02
2018-08-31T03:25:04.529Z,99648.41
2018-08-31T03:25:35.646Z,99647.93
2018-08-31T03:26:06.774Z,99649.64
2018-08-31T03:26:37.993Z,99650.51
2018-08-31T03:27:09.218Z,99655.31
2018-08-31T03:27:40.370Z,99655.70
2018-08-31T03:28:11.588Z,99652.95
2018-08-31T03:28:42.761Z,99651.53
2018-08-31T03:29:14.041Z,99654.11
2018-08-31T03:29:45.167Z,99653.53
2018-08-31T03:30:16.396Z,99657.49
2018-08-31T03:30:47.524Z,99655.63
2018-08-31T03:31:18.652Z,99651.66
2018-08-31T03:31:49.836Z,99652.88
2018-08-31T03:32:21.101Z,99650.72
2018-08-31T03:32:52.230Z,99656.00
2018-08-31T03:33:23.339Z,99658.65
2018-08-31T03:33:54.534Z,99654.59
2018-08-31T03:34:26.207Z,99660.64
2018-08-31T03:34:57.336Z,99657.03
2018-08-31T03:35:28.536Z,99656.00
2018-08-31T03:35:59.669Z,99659.02
2018-08-31T03:36:30.792Z,99661.50
2018-08-31T03:37:01.941Z,99658.37
2018-08-31T03:37:33.093Z,99659.25
2018-08-31T03:38:04.211Z,99660.63
2018-08-31T03:38:35.333Z,99660.63
2018-08-31T03:39:06.555Z,99655.73
2018-08-31T03:39:37.736Z,99659.70
2018-08-31T03:40:08.919Z,99659.25
2018-08-31T03:40:40.096Z,99659.25
2018-08-31T03:41:11.300Z,99664.44
2018-08-31T03:41:42.484Z,99660.19
2018-08-31T03:42:14.208Z,99661.50
2018-08-31T03:42:45.416Z,99655.63
2018-08-31T03:43:16.657Z,99662.08
2018-08-31T03:43:47.891Z,99661.20
2018-08-31T03:44:19.119Z,99658.95
2018-08-31T03:44:50.349Z,99666.49
2018-08-31T03:45:21.531Z,99662.84
2018-08-31T03:45:52.664Z,99669.81
2018-08-31T03:46:23.853Z,99668.88
2018-08-31T03:46:54.977Z,99663.20
2018-08-31T03:47:26.148Z,99664.52
2018-08-31T03:47:57.368Z,99668.48
2018-08-31T03:48:28.549Z,99666.23
2018-08-31T03:48:59.740Z,99664.52
2018-08-31T03:49:30.871Z,99663.97
2018-08-31T03:50:01.985Z,99662.16
2018-08-31T03:50:33.140Z,99663.03
2018-08-31T03:51:04.381Z,99666.52
2018-08-31T03:51:35.503Z,99665.95
2018-08-31T03:52:06.733Z,99664.64
2018-08-31T03:52:37.900Z,99667.67
2018-08-31T03:53:09.048Z,99671.15
2018-08-31T03:53:40.223Z,99670.77
2018-08-31T03:54:11.405Z,99670.25
2018-08-31T03:54:43.106Z,99677.98
2018-08-31T03:55:14.357Z,99676.66
2018-08-31T03:55:45.488Z,99680.17
2018-08-31T03:56:16.646Z,99677.05
2018-08-31T03:56:47.767Z,99679.31
2018-08-31T03:57:18.945Z,99686.05
2018-08-31T03:57:50.061Z,99680.55
2018-08-31T03:58:21.215Z,99683.77
2018-08-31T03:58:52.332Z,99685.20
2018-08-31T03:59:23.452Z,99683.61
2018-08-31T03:59:54.572Z,99681.98
2018-08-31T04:00:25.753Z,99685.29
2018-08-31T04:00:56.972Z,99684.73
2018-08-31T04:01:28.100Z,99681.98
2018-08-31T04:01:59.218Z,99685.78
2018-08-31T04:02:30.401Z,99684.36
2018-08-31T04:03:01.601Z,99683.42
2018-08-31T04:03:32.808Z,99682.48
2018-08-31T04:04:03.974Z,99687.08
2018-08-31T04:04:35.195Z,99685.97
2018-08-31T04:05:06.422Z,99682.84
2018-08-31T04:05:37.609Z,99684.92
2018-08-31T04:06:08.836Z,99674.72
2018-08-31T04:06:39.957Z,99679.81
2018-08-31T04:07:11.189Z,99679.14
2018-08-31T04:07:42.368Z,99683.88
2018-08-31T04:08:13.475Z,99682.24
2018-08-31T04:08:44.658Z,99686.42
2018-08-31T04:09:15.836Z,99687.08
2018-08-31T04:09:47.006Z,99682.94
2018-08-31T04:10:18.122Z,99679.73
2018-08-31T04:10:49.344Z,99684.81
2018-08-31T04:11:20.479Z,99684.04
2018-08-31T04:11:51.596Z,99683.66
2018-08-31T04:12:22.784Z,99689.05
2018-08-31T04:12:54.028Z,99685.62
2018-08-31T04:13:25.155Z,99680.38
2018-08-31T04:13:56.316Z,99684.94
2018-08-31T04:14:27.432Z,99684.55
2018-08-31T04:14:58.624Z,99687.14
2018-08-31T04:15:29.754Z,99689.50
2018-08-31T04:16:00.872Z,99685.23
2018-08-31T04:16:32.022Z,99689.94
2018-08-31T04:17:03.200Z,99689.19
2018-08-31T04:17:34.376Z,99689.45
2018-08-31T04:18:05.507Z,99685.64
2018-08-31T04:18:36.736Z,99688.83
2018-08-31T04:19:07.865Z,99691.48
2018-08-31T04:19:38.985Z,99687.67
2018-08-31T04:20:10.204Z,99683.86
2018-08-31T04:20:41.486Z,99687.91
2018-08-31T04:21:12.608Z,99687.87
2018-08-31T04:21:43.721Z,99690.84
2018-08-31T04:22:14.828Z,99692.02
2018-08-31T04:22:45.948Z,99685.34
2018-08-31T04:23:17.121Z,99685.80
2018-08-31T04:23:48.345Z,99684.05
2018-08-31T04:24:19.523Z,99688.33
2018-08-31T04:24:50.700Z,99689.03
2018-08-31T04:25:21.811Z,99688.30
2018-08-31T04:25:52.928Z,99684.78
2018-08-31T04:26:24.158Z,99678.84
2018-08-31T04:26:55.298Z,99683.97
2018-08-31T04:27:26.464Z,99683.41
2018-08-31T04:27:57.693Z,99683.30
2018-08-31T04:28:28.906Z,99684.94
2018-08-31T04:29:00.088Z,99682.55
2018-08-31T04:29:31.287Z,99683.81
2018-08-31T04:30:02.517Z,99683.78
2018-08-31T04:30:33.692Z,99682.72
2018-08-31T04:31:04.807Z,99681.94
2018-08-31T04:31:35.971Z,99684.52
2018-08-31T04:32:07.137Z,99689.05
2018-08-31T04:32:38.319Z,99679.88
2018-08-31T04:33:09.492Z,99679.78
2018-08-31T04:33:40.706Z,99686.65
2018-08-31T04:34:11.936Z,99682.08
2018-08-31T04:34:43.152Z,99675.55
2018-08-31T04:35:14.252Z,99678.34
2018-08-31T04:35:45.437Z,99681.87
2018-08-31T04:36:16.562Z,99681.28
2018-08-31T04:36:47.681Z,99680.23
2018-08-31T04:37:18.919Z,99677.38
2018-08-31T04:37:50.076Z,99676.08
2018-08-31T04:38:21.300Z,99676.09
2018-08-31T04:38:52.422Z,99674.53
2018-08-31T04:39:23.533Z,99679.52
2018-08-31T04:39:54.671Z,99674.33
2018-08-31T04:40:25.849Z,99673.22
2018-08-31T04:40:56.964Z,99674.23
2018-08-31T04:41:28.136Z,99675.21
2018-08-31T04:41:59.301Z,99673.98
2018-08-31T04:42:30.433Z,99678.09
2018-08-31T04:43:01.607Z,99679.44
2018-08-31T04:43:32.734Z,99680.52
2018-08-31T04:44:03.852Z,99678.70
2018-08-31T04:44:35.016Z,99675.30
2018-08-31T04:45:06.202Z,99682.67
2018-08-31T04:45:37.320Z,99685.44
2018-08-31T04:46:08.428Z,99686.38
2018-08-31T04:46:39.612Z,99681.65
2018-08-31T04:47:10.789Z,99681.55
2018-08-31T04:47:41.985Z,99683.08
2018-08-31T04:48:13.221Z,99684.64
2018-08-31T04:48:44.396Z,99685.84
2018-08-31T04:49:15.622Z,99683.41
2018-08-31T04:49:47.219Z,99684.01
2018-08-31T04:50:18.407Z,99684.64
2018-08-31T04:50:49.515Z,99684.28
2018-08-31T04:51:20.646Z,99683.31
2018-08-31T04:51:51.768Z,99681.47
2018-08-31T04:52:22.880Z,99678.80
2018-08-31T04:52:54.129Z,99673.56
2018-08-31T04:53:25.314Z,99678.14
2018-08-31T04:53:56.485Z,99672.63
2018-08-31T04:54:27.781Z,99677.36
2018-08-31T04:54:58.956Z,99678.32
2018-08-31T04:55:30.201Z,99680.80
2018-08-31T04:56:01.324Z,99671.72
2018-08-31T04:56:32.509Z,99670.52
2018-08-31T04:57:03.629Z,99672.19
2018-08-31T04:57:34.807Z,99673.66
2018-08-31T04:58:05.941Z,99679.00
2018-08-31T04:58:37.109Z,99677.19
2018-08-31T04:59:08.309Z,99682.09
2018-08-31T04:59:39.472Z,99680.08
2018-08-31T05:00:10.658Z,99676.24
2018-08-31T05:00:41.800Z,99682.15
2018-08-31T05:01:13.047Z,99679.75
2018-08-31T05:01:44.301Z,99686.27
2018-08-31T05:02:15.452Z,99682.95
2018-08-31T05:02:46.690Z,99677.97
2018-08-31T05:03:17.901Z,99683.91
2018-08-31T05:03:49.041Z,99684.96
2018-08-31T05:04:20.223Z,99681.78
2018-08-31T05:04:51.392Z,99685.48
2018-08-31T05:05:22.537Z,99675.30
2018-08-31T05:05:53.716Z,99685.62
2018-08-31T05:06:24.855Z,99676.49
2018-08-31T05:06:56.049Z,99679.97
2018-08-31T05:07:27.217Z,99680.59
2018-08-31T05:07:58.404Z,99679.40
2018-08-31T05:08:29.568Z,99680.48
2018-08-31T05:09:00.704Z,99669.50
2018-08-31T05:09:31.876Z,99680.44
2018-08-31T05:10:03.121Z,99677.44
2018-08-31T05:10:34.304Z,99678.83
2018-08-31T05:11:05.460Z,99681.73
2018-08-31T05:11:36.624Z,99684.55
2018-08-31T05:12:07.831Z,99674.63
2018-08-31T05:12:39.000Z,99672.14
2018-08-31T05:13:10.124Z,99682.16
2018-08-31T05:13:41.289Z,99681.45
2018-08-31T05:14:12.486Z,99684.88
2018-08-31T05:14:43.619Z,99681.66
2018-08-31T05:15:14.735Z,99688.83
2018-08-31T05:15:45.851Z,99688.25
2018-08-31T05:16:16.998Z,99680.73
2018-08-31T05:16:48.173Z,99683.73
2018-08-31T05:17:19.301Z,99683.73
2018-08-31T05:17:50.537Z,99686.37
2018-08-31T05:18:21.735Z,99683.98
2018-08-31T05:18:52.948Z,99685.07
2018-08-31T05:19:24.092Z,99691.86
2018-08-31T05:19:55.220Z,99679.89
2018-08-31T05:20:26.392Z,99683.08
2018-08-31T05:20:57.583Z,99680.98
2018-08-31T05:21:28.774Z,99685.94
2018-08-31T05:22:00.017Z,99688.47
2018-08-31T05:22:31.218Z,99690.84
2018-08-31T05:23:02.474Z,99690.64
2018-08-31T05:23:33.629Z,99690.52
2018-08-31T05:24:04.866Z,99686.30
2018-08-31T05:24:36.040Z,99686.39
2018-08-31T05:25:07.285Z,99692.92
2018-08-31T05:25:38.553Z,99691.74
2018-08-31T05:26:09.749Z,99693.69
2018-08-31T05:26:40.945Z,99688.64
2018-08-31T05:27:12.061Z,99685.31
2018-08-31T05:27:43.270Z,99690.87
2018-08-31T05:28:14.462Z,99688.70
2018-08-31T05:28:45.635Z,99686.55
2018-08-31T05:29:16.869Z,99689.88
2018-08-31T05:29:48.010Z,99692.30
2018-08-31T05:30:19.192Z,99688.85
2018-08-31T05:30:50.363Z,99685.97
2018-08-31T05:31:21.541Z,99694.10
2018-08-31T05:31:52.668Z,99687.05
2018-08-31T05:32:23.912Z,99688.47
2018-08-31T05:32:55.072Z,99692.98
2018-08-31T05:33:26.252Z,99692.00
2018-08-31T05:33:57.451Z,99694.48
2018-08-31T05:34:28.640Z,99696.45
2018-08-31T05:34:59.800Z,99696.59
2018-08-31T05:35:30.991Z,99701.39
2018-08-31T05:36:02.113Z,99696.34
2018-08-31T05:36:33.336Z,99695.48
2018-08-31T05:37:04.522Z,99702.17
2018-08-31T05:37:35.693Z,99698.72
2018-08-31T05:38:06.841Z,99698.30
2018-08-31T05:38:37.959Z,99703.72
2018-08-31T05:39:09.125Z,99695.48
2018-08-31T05:39:40.259Z,99697.11
2018-08-31T05:40:11.457Z,99696.20
2018-08-31T05:40:42.647Z,99696.70
2018-08-31T05:41:13.803Z,99699.30
2018-08-31T05:41:44.984Z,99701.83
2018-08-31T05:42:16.210Z,99699.81
2018-08-31T05:42:47.502Z,99692.76
2018-08-31T05:43:18.742Z,99696.33
2018-08-31T05:43:49.879Z,99694.37
2018-08-31T05:44:21.048Z,99699.00
2018-08-31T05:44:52.181Z,99689.64
2018-08-31T05:45:23.391Z,99694.63
2018-08-31T05:45:54.592Z,99689.70
2018-08-31T05:46:25.759Z,99698.66
2018-08-31T05:46:56.936Z,99695.34
2018-08-31T05:47:28.073Z,99693.72
2018-08-31T05:47:59.437Z,99687.44
2018-08-31T05:48:30.565Z,99696.87
2018-08-31T05:49:01.676Z,99690.25
2018-08-31T05:49:32.792Z,99689.79
2018-08-31T05:50:03.904Z,99693.05
2018-08-31T05:50:35.068Z,99693.98
2018-08-31T05:51:06.175Z,99696.20
2018-08-31T05:51:37.299Z,99692.55
2018-08-31T05:52:08.473Z,99695.70
2018-08-31T05:52:39.631Z,99699.38
2018-08-31T05:53:10.807Z,99699.73
2018-08-31T05:53:42.027Z,99694.47
2018-08-31T05:54:13.255Z,99698.70
2018-08-31T05:54:44.496Z,99695.59
2018-08-31T05:55:15.705Z,99699.38
2018-08-31T05:55:46.850Z,99697.38
2018-08-31T05:56:18.028Z,99699.48
2018-08-31T05:56:49.255Z,99705.83
2018-08-31T05:57:21.359Z,99700.69
2018-08-31T05:57:52.624Z,99700.23
2018-08-31T05:58:23.912Z,99702.05
2018-08-31T05:58:55.155Z,99700.34
2018-08-31T05:59:26.348Z,99700.63
2018-08-31T05:59:57.628Z,99703.75
2018-08-31T06:00:28.959Z,99702.13
2018-08-31T06:01:00.123Z,99702.91
2018-08-31T06:01:31.296Z,99703.50
2018-08-31T06:02:02.517Z,99704.94
2018-08-31T06:02:34.513Z,99705.79
2018-08-31T06:03:05.804Z,99704.09
2018-08-31T06:03:37.093Z,99708.00
2018-08-31T06:04:08.441Z,99699.03
2018-08-31T06:04:39.620Z,99706.43
2018-08-31T06:05:10.828Z,99705.09
2018-08-31T06:05:41.959Z,99705.61
2018-08-31T06:06:13.232Z,99706.77
2018-08-31T06:06:44.460Z,99711.62
2018-08-31T06:07:16.741Z,99708.09
2018-08-31T06:07:47.867Z,99708.58
2018-08-31T06:08:19.043Z,99709.31
2018-08-31T06:08:50.257Z,99707.01
2018-08-31T06:09:21.374Z,99701.30
2018-08-31T06:09:52.524Z,99707.84
2018-08-31T06:10:23.696Z,99707.84
2018-08-31T06:10:54.884Z,99710.41